createdAt,value
2023-02-15T00:00:25.904Z,20.56
2023-02-15T00:02:56.294Z,20.57
2023-02-15T00:05:28.203Z,20.56
2023-02-15T00:07:58.204Z,20.56
2023-02-15T00:10:28.733Z,20.55
2023-02-15T00:12:58.529Z,20.54
2023-02-15T00:15:28.999Z,20.55
2023-02-15T00:18:00.286Z,20.55
2023-02-15T00:20:32.278Z,20.54
2023-02-15T00:23:03.177Z,20.54
2023-02-15T00:25:32.773Z,20.53
2023-02-15T00:28:04.432Z,20.53
2023-02-15T00:30:35.300Z,20.52
2023-02-15T00:33:05.677Z,20.52
2023-02-15T00:35:37.713Z,20.52
2023-02-15T00:38:07.872Z,20.51
2023-02-15T00:40:38.874Z,20.51
2023-02-15T00:43:08.884Z,20.51
2023-02-15T00:45:40.981Z,20.49
2023-02-15T00:48:10.784Z,20.49
2023-02-15T00:50:42.730Z,20.48
2023-02-15T00:53:12.597Z,20.45
2023-02-15T00:55:42.509Z,20.42
2023-02-15T00:58:14.290Z,20.39
2023-02-15T01:00:47.515Z,20.36
2023-02-15T01:03:20.003Z,20.31
2023-02-15T01:05:55.542Z,20.28
2023-02-15T01:08:25.880Z,20.25
2023-02-15T01:10:56.146Z,20.23
2023-02-15T01:13:26.554Z,20.22
2023-02-15T01:15:58.528Z,20.21
2023-02-15T01:18:29.060Z,20.20
2023-02-15T01:21:01.363Z,20.19
2023-02-15T01:23:31.720Z,20.20
2023-02-15T01:26:06.340Z,20.21
2023-02-15T01:28:36.799Z,20.20
2023-02-15T01:31:10.574Z,20.21
2023-02-15T01:33:41.986Z,20.20
2023-02-15T01:36:18.731Z,20.18
2023-02-15T01:38:49.464Z,20.17
2023-02-15T01:41:27.568Z,20.16
2023-02-15T01:44:01.109Z,20.15
2023-02-15T01:46:38.680Z,20.15
2023-02-15T01:49:17.603Z,20.12
2023-02-15T01:51:54.176Z,20.11
2023-02-15T01:54:32.944Z,20.09
2023-02-15T01:57:08.583Z,20.08
2023-02-15T01:59:43.041Z,20.06
2023-02-15T02:02:17.174Z,20.06
2023-02-15T02:04:52.705Z,20.04
2023-02-15T02:07:29.278Z,20.03
2023-02-15T02:09:58.969Z,20.02
2023-02-15T02:12:30.226Z,20.00
2023-02-15T02:15:02.443Z,19.99
2023-02-15T02:17:51.321Z,19.98
2023-02-15T02:20:54.936Z,19.97
2023-02-15T02:24:26.550Z,19.93
2023-02-15T02:27:26.889Z,19.91
2023-02-15T02:30:42.695Z,19.90
2023-02-15T02:33:51.485Z,19.88
2023-02-15T02:36:35.085Z,19.88
2023-02-15T02:39:20.854Z,19.88
2023-02-15T02:42:05.021Z,19.87
2023-02-15T02:44:46.252Z,19.87
2023-02-15T02:47:26.222Z,19.86
2023-02-15T02:50:04.811Z,19.86
2023-02-15T02:52:45.275Z,19.84
2023-02-15T02:55:23.900Z,19.83
2023-02-15T02:58:02.543Z,19.81
2023-02-15T03:00:38.227Z,19.80
2023-02-15T03:03:16.552Z,19.80
2023-02-15T03:05:54.476Z,19.79
2023-02-15T03:08:32.539Z,19.77
2023-02-15T03:11:06.807Z,19.76
2023-02-15T03:13:38.093Z,19.76
2023-02-15T03:16:30.652Z,19.75
2023-02-15T03:19:09.778Z,19.72
2023-02-15T03:21:50.719Z,19.71
2023-02-15T03:24:27.418Z,19.68
2023-02-15T03:27:00.252Z,19.66
2023-02-15T03:29:33.801Z,19.63
2023-02-15T03:32:10.615Z,19.62
2023-02-15T03:34:40.649Z,19.60
2023-02-15T03:37:24.193Z,19.61
2023-02-15T03:40:21.684Z,19.59
2023-02-15T03:43:00.077Z,19.58
2023-02-15T03:45:36.701Z,19.56
2023-02-15T03:48:10.200Z,19.55
2023-02-15T03:50:59.606Z,19.56
2023-02-15T03:53:31.894Z,19.54
2023-02-15T03:56:02.174Z,19.54
2023-02-15T03:58:49.040Z,19.56
2023-02-15T04:01:59.192Z,19.53
2023-02-15T04:04:38.282Z,19.51
2023-02-15T04:07:10.659Z,19.50
2023-02-15T04:09:59.710Z,19.49
2023-02-15T04:12:29.992Z,19.49
2023-02-15T04:15:17.014Z,19.48
2023-02-15T04:17:46.970Z,19.49
2023-02-15T04:20:34.141Z,19.50
2023-02-15T04:23:21.291Z,19.50
2023-02-15T04:25:53.651Z,19.50
2023-02-15T04:28:24.133Z,19.49
2023-02-15T04:30:54.380Z,19.49
2023-02-15T04:33:24.858Z,19.49
2023-02-15T04:35:55.081Z,19.47
2023-02-15T04:38:25.670Z,19.45
2023-02-15T04:41:01.500Z,19.45
2023-02-15T04:43:31.176Z,19.43
2023-02-15T04:46:02.013Z,19.43
2023-02-15T04:48:32.327Z,19.44
2023-02-15T04:51:01.913Z,19.43
2023-02-15T04:53:31.787Z,19.43
2023-02-15T04:56:04.466Z,19.43
2023-02-15T04:58:34.875Z,19.41
2023-02-15T05:01:04.639Z,19.42
2023-02-15T05:03:34.950Z,19.40
2023-02-15T05:06:05.563Z,19.38
2023-02-15T05:08:35.948Z,19.36
2023-02-15T05:11:07.942Z,19.35
2023-02-15T05:13:37.883Z,19.32
2023-02-15T05:16:08.556Z,19.31
2023-02-15T05:18:38.500Z,19.30
2023-02-15T05:21:08.951Z,19.29
2023-02-15T05:23:39.303Z,19.30
2023-02-15T05:26:31.385Z,19.31
2023-02-15T05:29:01.140Z,19.34
2023-02-15T05:31:31.300Z,19.38
2023-02-15T05:34:01.889Z,19.47
2023-02-15T05:36:32.230Z,19.58
2023-02-15T05:39:02.619Z,19.70
2023-02-15T05:41:34.989Z,19.84
2023-02-15T05:44:05.337Z,19.97
2023-02-15T05:46:35.772Z,20.12
2023-02-15T05:49:06.321Z,20.27
2023-02-15T05:51:36.357Z,20.40
2023-02-15T05:54:06.845Z,20.51
2023-02-15T05:56:38.431Z,20.57
2023-02-15T05:59:08.877Z,20.61
2023-02-15T06:01:39.745Z,20.63
2023-02-15T06:04:09.953Z,20.63
2023-02-15T06:06:40.077Z,20.60
2023-02-15T06:09:10.583Z,20.58
2023-02-15T06:11:42.826Z,20.53
2023-02-15T06:14:13.154Z,20.48
2023-02-15T06:16:43.547Z,20.44
2023-02-15T06:19:13.508Z,20.40
2023-02-15T06:21:43.493Z,20.38
2023-02-15T06:24:14.170Z,20.35
2023-02-15T06:26:46.697Z,20.34
2023-02-15T06:29:17.254Z,20.35
2023-02-15T06:31:47.695Z,20.36
2023-02-15T06:34:18.380Z,20.37
2023-02-15T06:36:48.655Z,20.36
2023-02-15T06:39:18.638Z,20.37
2023-02-15T06:41:51.020Z,20.38
2023-02-15T06:44:21.462Z,20.38
2023-02-15T06:46:51.797Z,20.39
2023-02-15T06:49:22.001Z,20.38
2023-02-15T06:51:51.650Z,20.37
2023-02-15T06:54:22.191Z,20.37
2023-02-15T06:56:54.536Z,20.37
2023-02-15T06:59:24.411Z,20.42
2023-02-15T07:01:54.757Z,20.50
2023-02-15T07:04:24.767Z,20.60
2023-02-15T07:06:54.496Z,20.73
2023-02-15T07:09:25.253Z,20.87
2023-02-15T07:12:13.925Z,21.01
2023-02-15T07:14:44.067Z,21.14
2023-02-15T07:17:32.971Z,21.27
2023-02-15T07:20:04.453Z,21.40
2023-02-15T07:22:37.448Z,21.53
2023-02-15T07:25:07.756Z,21.64
2023-02-15T07:27:39.387Z,21.78
2023-02-15T07:30:14.003Z,21.92
2023-02-15T07:32:57.338Z,22.06
2023-02-15T07:35:27.890Z,22.20
2023-02-15T07:37:58.695Z,22.36
2023-02-15T07:40:29.331Z,22.49
2023-02-15T07:43:02.546Z,22.60
2023-02-15T07:45:32.613Z,22.72
2023-02-15T07:48:05.585Z,22.82
2023-02-15T07:50:36.227Z,22.94
2023-02-15T07:53:07.870Z,23.05
2023-02-15T07:55:37.574Z,23.15
2023-02-15T07:58:09.333Z,23.26
2023-02-15T08:00:57.655Z,23.37
2023-02-15T08:03:28.552Z,23.48
2023-02-15T08:06:01.609Z,23.61
2023-02-15T08:08:34.779Z,23.69
2023-02-15T08:11:25.898Z,23.75
2023-02-15T08:14:00.769Z,23.76
2023-02-15T08:16:35.233Z,23.77
2023-02-15T08:19:08.175Z,23.78
2023-02-15T08:21:40.551Z,23.78
2023-02-15T08:24:13.087Z,23.78
2023-02-15T08:26:46.350Z,23.73
2023-02-15T08:29:20.176Z,23.68
2023-02-15T08:31:51.928Z,23.64
2023-02-15T08:34:23.491Z,23.61
2023-02-15T08:36:54.157Z,23.57
2023-02-15T08:39:24.727Z,23.56
2023-02-15T08:41:55.049Z,23.56
2023-02-15T08:44:27.194Z,23.53
2023-02-15T08:47:00.043Z,23.49
2023-02-15T08:49:30.045Z,23.48
2023-02-15T08:52:00.005Z,23.46
2023-02-15T08:54:29.967Z,23.43
2023-02-15T08:57:00.362Z,23.42
2023-02-15T08:59:32.737Z,23.40
2023-02-15T09:02:04.408Z,23.37
2023-02-15T09:04:35.043Z,23.38
2023-02-15T09:07:05.831Z,23.40
2023-02-15T09:09:36.345Z,23.42
2023-02-15T09:12:06.997Z,23.46
2023-02-15T09:14:39.189Z,23.47
2023-02-15T09:17:09.566Z,23.47
2023-02-15T09:19:39.908Z,23.48
2023-02-15T09:22:10.253Z,23.48
2023-02-15T09:24:40.660Z,23.49
2023-02-15T09:27:11.120Z,23.50
2023-02-15T09:29:43.607Z,23.51
2023-02-15T09:32:18.984Z,23.50
2023-02-15T09:34:49.507Z,23.50
2023-02-15T09:37:19.506Z,23.52
2023-02-15T09:39:50.424Z,23.53
2023-02-15T09:42:57.771Z,23.54
2023-02-15T09:45:48.050Z,23.54
2023-02-15T09:48:42.817Z,23.58
2023-02-15T09:51:53.656Z,23.60
2023-02-15T09:54:49.202Z,23.61
2023-02-15T09:57:34.098Z,23.62
2023-02-15T10:00:23.642Z,23.64
2023-02-15T10:03:19.002Z,23.67
2023-02-15T10:06:17.223Z,23.69
2023-02-15T10:09:30.560Z,23.70
2023-02-15T10:12:25.778Z,23.72
2023-02-15T10:15:41.459Z,23.71
2023-02-15T10:18:58.410Z,23.72
2023-02-15T10:21:47.372Z,23.71
2023-02-15T10:24:47.204Z,23.72
2023-02-15T10:27:24.633Z,23.72
2023-02-15T10:30:11.516Z,23.72
2023-02-15T10:32:59.342Z,23.70
2023-02-15T10:35:47.877Z,23.70
2023-02-15T10:38:34.859Z,23.69
2023-02-15T10:41:25.818Z,23.67
2023-02-15T10:44:27.649Z,23.65
2023-02-15T10:47:25.727Z,23.63
2023-02-15T10:50:28.285Z,23.59
2023-02-15T10:53:17.613Z,23.57
2023-02-15T10:56:01.339Z,23.55
2023-02-15T10:58:55.690Z,23.51
2023-02-15T11:01:36.410Z,23.47
2023-02-15T11:04:43.075Z,23.44
2023-02-15T11:07:23.686Z,23.40
2023-02-15T11:10:09.449Z,23.37
2023-02-15T11:12:40.113Z,23.32
2023-02-15T11:15:23.388Z,23.29
2023-02-15T11:18:02.668Z,23.25
2023-02-15T11:20:39.427Z,23.21
2023-02-15T11:23:19.865Z,23.15
2023-02-15T11:26:02.687Z,23.09
2023-02-15T11:28:41.897Z,23.05
2023-02-15T11:31:22.606Z,23.00
2023-02-15T11:34:02.487Z,22.92
2023-02-15T11:36:38.649Z,22.84
2023-02-15T11:39:17.810Z,22.77
2023-02-15T11:41:57.131Z,22.70
2023-02-15T11:44:35.365Z,22.64
2023-02-15T11:47:06.002Z,22.59
2023-02-15T11:49:38.984Z,22.55
2023-02-15T11:52:15.141Z,22.50
2023-02-15T11:54:48.963Z,22.45
2023-02-15T11:57:28.873Z,22.42
2023-02-15T12:00:10.137Z,22.41
2023-02-15T12:02:45.713Z,22.40
2023-02-15T12:05:23.524Z,22.41
2023-02-15T12:08:00.573Z,22.42
2023-02-15T12:10:38.378Z,22.42
2023-02-15T12:13:19.253Z,22.41
2023-02-15T12:15:52.500Z,22.39
2023-02-15T12:18:41.836Z,22.37
2023-02-15T12:21:15.262Z,22.36
2023-02-15T12:23:53.930Z,22.34
2023-02-15T12:26:30.808Z,22.31
2023-02-15T12:29:10.154Z,22.28
2023-02-15T12:31:47.383Z,22.27
2023-02-15T12:34:25.945Z,22.26
2023-02-15T12:37:01.648Z,22.24
2023-02-15T12:39:33.578Z,22.23
2023-02-15T12:42:08.944Z,22.23
2023-02-15T12:44:41.092Z,22.23
2023-02-15T12:47:28.860Z,22.25
2023-02-15T12:50:18.244Z,22.26
2023-02-15T12:52:50.401Z,22.27
2023-02-15T12:55:31.339Z,22.28
2023-02-15T12:58:22.955Z,22.30
2023-02-15T13:01:14.272Z,22.31
2023-02-15T13:04:02.193Z,22.33
2023-02-15T13:06:36.200Z,22.34
2023-02-15T13:09:19.240Z,22.36
2023-02-15T13:11:51.178Z,22.36
2023-02-15T13:14:24.432Z,22.37
2023-02-15T13:17:01.753Z,22.37
2023-02-15T13:19:38.979Z,22.35
2023-02-15T13:22:16.978Z,22.37
2023-02-15T13:24:51.431Z,22.38
2023-02-15T13:27:26.325Z,22.37
2023-02-15T13:30:02.289Z,22.36
2023-02-15T13:32:39.358Z,22.37
2023-02-15T13:35:19.287Z,22.38
2023-02-15T13:38:18.532Z,22.37
2023-02-15T13:40:57.371Z,22.36
2023-02-15T13:43:49.383Z,22.37
2023-02-15T13:46:42.635Z,22.37
2023-02-15T13:49:40.621Z,22.38
2023-02-15T13:52:23.600Z,22.40
2023-02-15T13:55:24.444Z,22.39
2023-02-15T13:58:38.489Z,22.38
2023-02-15T14:01:22.009Z,22.38
2023-02-15T14:04:24.125Z,22.39
2023-02-15T14:07:27.468Z,22.38
2023-02-15T14:10:22.130Z,22.36
2023-02-15T14:13:14.517Z,22.36
2023-02-15T14:15:54.090Z,22.36
2023-02-15T14:18:39.310Z,22.37
2023-02-15T14:21:22.975Z,22.35
2023-02-15T14:24:16.411Z,22.35
2023-02-15T14:26:58.349Z,22.36
2023-02-15T14:29:47.361Z,22.34
2023-02-15T14:32:27.623Z,22.34
2023-02-15T14:35:02.169Z,22.33
2023-02-15T14:37:46.356Z,22.33
2023-02-15T14:40:49.308Z,22.32
2023-02-15T14:43:34.024Z,22.30
2023-02-15T14:46:15.368Z,22.30
2023-02-15T14:48:53.044Z,22.29
2023-02-15T14:52:09.892Z,22.27
2023-02-15T14:55:03.964Z,22.24
2023-02-15T14:57:37.469Z,22.24
2023-02-15T15:00:41.813Z,22.22
2023-02-15T15:03:25.912Z,22.20
2023-02-15T15:06:02.255Z,22.18
2023-02-15T15:08:41.629Z,22.17
2023-02-15T15:11:48.333Z,22.15
2023-02-15T15:14:45.652Z,22.12
2023-02-15T15:18:04.034Z,22.10
2023-02-15T15:20:51.187Z,22.07
2023-02-15T15:23:49.654Z,22.06
2023-02-15T15:26:50.529Z,22.05
2023-02-15T15:29:44.051Z,22.03
2023-02-15T15:32:31.252Z,22.03
2023-02-15T15:35:27.358Z,22.01
2023-02-15T15:38:34.919Z,22.00
2023-02-15T15:41:21.447Z,21.98
2023-02-15T15:44:58.672Z,21.95
2023-02-15T15:48:07.029Z,21.94
2023-02-15T15:50:38.090Z,21.93
2023-02-15T15:53:23.405Z,21.93
2023-02-15T15:55:58.814Z,21.92
2023-02-15T15:58:29.154Z,21.90
2023-02-15T16:01:11.304Z,21.91
2023-02-15T16:03:41.864Z,21.89
2023-02-15T16:06:18.205Z,21.89
2023-02-15T16:08:48.302Z,21.88
2023-02-15T16:11:24.317Z,21.87
2023-02-15T16:13:56.274Z,21.84
2023-02-15T16:16:32.772Z,21.84
2023-02-15T16:19:03.873Z,21.82
2023-02-15T16:21:39.932Z,21.81
2023-02-15T16:25:28.849Z,21.79
2023-02-15T16:27:59.652Z,21.76
2023-02-15T16:30:33.258Z,21.75
2023-02-15T16:33:15.272Z,21.75
2023-02-15T16:35:59.864Z,21.74
2023-02-15T16:39:10.772Z,21.71
2023-02-15T16:41:43.338Z,21.70
2023-02-15T16:44:21.865Z,21.68
2023-02-15T16:46:56.919Z,21.66
2023-02-15T16:49:32.957Z,21.66
2023-02-15T16:52:06.963Z,21.65
2023-02-15T16:54:38.653Z,21.64
2023-02-15T16:57:16.587Z,21.62
2023-02-15T16:59:52.385Z,21.61
2023-02-15T17:02:49.738Z,21.59
2023-02-15T17:05:24.913Z,21.57
2023-02-15T17:08:16.574Z,21.57
2023-02-15T17:11:07.792Z,21.56
2023-02-15T17:13:38.234Z,21.55
2023-02-15T17:16:33.221Z,21.56
2023-02-15T17:19:05.318Z,21.54
2023-02-15T17:21:44.998Z,21.54
2023-02-15T17:24:25.010Z,21.55
2023-02-15T17:27:03.143Z,21.54
2023-02-15T17:29:40.246Z,21.53
2023-02-15T17:32:22.118Z,21.52
2023-02-15T17:35:12.894Z,21.49
2023-02-15T17:37:51.823Z,21.47
2023-02-15T17:40:28.326Z,21.47
2023-02-15T17:42:59.159Z,21.43
2023-02-15T17:45:39.074Z,21.40
2023-02-15T17:48:17.081Z,21.38
2023-02-15T17:50:47.577Z,21.34
2023-02-15T17:53:22.392Z,21.32
2023-02-15T17:55:51.002Z,21.30
2023-02-15T17:58:22.996Z,21.28
2023-02-15T18:01:14.393Z,21.24
2023-02-15T18:04:04.325Z,21.20
2023-02-15T18:06:52.079Z,21.16
2023-02-15T18:09:43.346Z,21.12
2023-02-15T18:12:24.345Z,21.09
2023-02-15T18:14:56.878Z,21.06
2023-02-15T18:17:35.379Z,21.04
2023-02-15T18:20:09.846Z,21.00
2023-02-15T18:22:40.910Z,20.98
2023-02-15T18:25:17.600Z,20.96
2023-02-15T18:27:49.057Z,20.94
2023-02-15T18:30:22.588Z,20.92
2023-02-15T18:32:57.042Z,20.90
2023-02-15T18:35:32.887Z,20.87
2023-02-15T18:38:04.738Z,20.85
2023-02-15T18:40:37.714Z,20.83
2023-02-15T18:43:08.134Z,20.80
2023-02-15T18:45:39.513Z,20.79
2023-02-15T18:48:10.638Z,20.76
2023-02-15T18:50:41.775Z,20.74
2023-02-15T18:53:22.113Z,20.71
2023-02-15T18:55:55.341Z,20.68
2023-02-15T18:58:29.482Z,20.67
2023-02-15T19:01:01.606Z,20.65
2023-02-15T19:03:32.844Z,20.63
2023-02-15T19:06:05.855Z,20.61
2023-02-15T19:08:37.372Z,20.61
2023-02-15T19:11:20.254Z,20.60
2023-02-15T19:13:51.348Z,20.60
2023-02-15T19:16:36.020Z,20.60
2023-02-15T19:19:07.495Z,20.57
2023-02-15T19:21:38.004Z,20.57
2023-02-15T19:24:18.289Z,20.56
2023-02-15T19:26:52.393Z,20.55
2023-02-15T19:29:30.127Z,20.53
2023-02-15T19:32:00.354Z,20.51
2023-02-15T19:34:31.398Z,20.51
2023-02-15T19:37:02.596Z,20.50
2023-02-15T19:39:41.089Z,20.49
2023-02-15T19:42:19.145Z,20.49
2023-02-15T19:44:49.749Z,20.48
2023-02-15T19:47:19.999Z,20.46
2023-02-15T19:49:50.505Z,20.45
2023-02-15T19:52:26.193Z,20.44
2023-02-15T19:54:58.382Z,20.43
2023-02-15T19:57:32.116Z,20.42
2023-02-15T20:00:15.912Z,20.41
2023-02-15T20:02:51.426Z,20.39
2023-02-15T20:05:23.424Z,20.38
2023-02-15T20:07:55.938Z,20.37
2023-02-15T20:10:30.814Z,20.35
2023-02-15T20:13:04.872Z,20.34
2023-02-15T20:15:38.106Z,20.33
2023-02-15T20:18:08.174Z,20.31
2023-02-15T20:20:49.751Z,20.29
2023-02-15T20:23:25.154Z,20.28
2023-02-15T20:25:57.113Z,20.25
2023-02-15T20:28:31.944Z,20.24
2023-02-15T20:31:02.580Z,20.23
2023-02-15T20:33:33.482Z,20.22
2023-02-15T20:36:03.881Z,20.22
2023-02-15T20:38:35.863Z,20.21
2023-02-15T20:41:22.870Z,20.20
2023-02-15T20:43:55.336Z,20.19
2023-02-15T20:46:25.931Z,20.19
2023-02-15T20:48:56.744Z,20.19
2023-02-15T20:51:27.393Z,20.19
2023-02-15T20:53:57.735Z,20.17
2023-02-15T20:56:28.663Z,20.19
2023-02-15T20:59:00.974Z,20.19
2023-02-15T21:01:32.837Z,20.17
2023-02-15T21:04:03.978Z,20.17
2023-02-15T21:06:34.433Z,20.17
2023-02-15T21:09:05.196Z,20.17
2023-02-15T21:11:34.947Z,20.16
2023-02-15T21:14:06.672Z,20.16
2023-02-15T21:16:36.960Z,20.15
2023-02-15T21:19:16.903Z,20.15
2023-02-15T21:21:48.659Z,20.13
2023-02-15T21:24:23.799Z,20.12
2023-02-15T21:26:55.913Z,20.11
2023-02-15T21:29:31.245Z,20.10
2023-02-15T21:32:03.199Z,20.08
2023-02-15T21:34:33.692Z,20.07
2023-02-15T21:37:05.435Z,20.05
2023-02-15T21:39:39.735Z,20.03
2023-02-15T21:42:30.310Z,20.01
2023-02-15T21:45:18.668Z,19.97
2023-02-15T21:47:55.475Z,19.92
2023-02-15T21:50:44.686Z,19.91
2023-02-15T21:53:25.418Z,19.89
2023-02-15T21:56:00.309Z,19.87
2023-02-15T21:58:33.608Z,19.87
2023-02-15T22:01:06.070Z,19.87
2023-02-15T22:03:40.119Z,19.87
2023-02-15T22:06:15.722Z,19.88
2023-02-15T22:08:46.349Z,19.87
2023-02-15T22:11:19.152Z,19.87
2023-02-15T22:13:51.434Z,19.86
2023-02-15T22:16:26.089Z,19.86
2023-02-15T22:18:56.633Z,19.86
2023-02-15T22:21:27.608Z,19.85
2023-02-15T22:23:57.862Z,19.84
2023-02-15T22:26:29.113Z,19.82
2023-02-15T22:29:00.687Z,19.79
2023-02-15T22:31:33.123Z,19.73
2023-02-15T22:34:03.547Z,19.67
2023-02-15T22:36:34.454Z,19.64
2023-02-15T22:39:04.666Z,19.60
2023-02-15T22:41:44.339Z,19.56
2023-02-15T22:44:18.639Z,19.51
2023-02-15T22:46:55.220Z,19.45
2023-02-15T22:49:25.747Z,19.38
2023-02-15T22:51:56.426Z,19.32
2023-02-15T22:54:27.738Z,19.28
2023-02-15T22:56:58.173Z,19.26
2023-02-15T22:59:34.655Z,19.23
2023-02-15T23:02:08.263Z,19.21
2023-02-15T23:04:38.040Z,19.18
2023-02-15T23:07:15.507Z,19.17
2023-02-15T23:09:46.651Z,19.15
2023-02-15T23:12:28.514Z,19.13
2023-02-15T23:15:00.780Z,19.10
2023-02-15T23:17:32.178Z,19.09
2023-02-15T23:20:03.268Z,19.08
2023-02-15T23:22:33.739Z,19.07
2023-02-15T23:25:04.248Z,19.07
2023-02-15T23:27:50.443Z,19.06
2023-02-15T23:30:21.583Z,19.03
2023-02-15T23:32:55.691Z,19.01
2023-02-15T23:35:26.456Z,18.99
2023-02-15T23:37:56.418Z,18.95
2023-02-15T23:40:51.649Z,18.92
2023-02-15T23:43:25.497Z,18.91
2023-02-15T23:45:55.340Z,18.91
2023-02-15T23:48:40.456Z,18.92
2023-02-15T23:51:14.053Z,18.90
2023-02-15T23:53:44.112Z,18.90
2023-02-15T23:56:16.160Z,18.88
2023-02-15T23:58:48.987Z,18.88
